createdAt,value
2019-03-30T00:01:29.126Z,55.38
2019-03-30T00:04:00.913Z,55.55
2019-03-30T00:06:32.128Z,55.54
2019-03-30T00:09:03.801Z,55.82
2019-03-30T00:11:34.719Z,56.15
2019-03-30T00:14:05.966Z,56.32
2019-03-30T00:16:37.204Z,56.17
2019-03-30T00:19:08.352Z,56.53
2019-03-30T00:21:39.930Z,56.55
2019-03-30T00:24:10.328Z,56.80
2019-03-30T00:26:43.010Z,56.85
2019-03-30T00:29:13.669Z,57.25
2019-03-30T00:31:44.365Z,57.23
2019-03-30T00:34:17.862Z,57.25
2019-03-30T00:36:49.220Z,57.35
2019-03-30T00:39:21.261Z,57.36
2019-03-30T00:41:52.411Z,57.50
2019-03-30T00:44:23.560Z,57.58
2019-03-30T00:46:53.778Z,57.46
2019-03-30T00:49:28.183Z,57.67
2019-03-30T00:51:59.161Z,58.01
2019-03-30T00:54:31.194Z,57.74
2019-03-30T00:57:01.457Z,57.91
2019-03-30T00:59:32.250Z,57.93
2019-03-30T01:02:02.983Z,57.88
2019-03-30T01:04:35.257Z,58.00
2019-03-30T01:07:07.113Z,58.18
2019-03-30T01:09:37.435Z,58.23
2019-03-30T01:12:12.461Z,58.49
2019-03-30T01:14:42.795Z,58.41
2019-03-30T01:17:13.522Z,58.53
2019-03-30T01:19:44.254Z,58.75
2019-03-30T01:22:17.444Z,58.77
2019-03-30T01:24:48.279Z,59.02
2019-03-30T01:27:21.398Z,58.93
2019-03-30T01:29:52.924Z,59.38
2019-03-30T01:32:23.859Z,59.72
2019-03-30T01:34:55.304Z,60.36
2019-03-30T01:37:27.263Z,60.55
2019-03-30T01:39:58.715Z,60.57
2019-03-30T01:42:29.954Z,60.78
2019-03-30T01:45:02.025Z,60.87
2019-03-30T01:47:32.589Z,60.92
2019-03-30T01:50:16.680Z,61.30
2019-03-30T01:52:36.779Z,61.06
2019-03-30T01:55:08.322Z,61.09
2019-03-30T01:57:40.127Z,61.31
2019-03-30T02:00:12.041Z,61.35
2019-03-30T02:02:42.376Z,61.56
2019-03-30T02:05:15.165Z,61.66
2019-03-30T02:07:45.579Z,61.78
2019-03-30T02:10:19.582Z,61.83
2019-03-30T02:12:52.160Z,62.04
2019-03-30T02:15:25.967Z,62.36
2019-03-30T02:17:57.009Z,62.62
2019-03-30T02:20:44.947Z,62.63
2019-03-30T02:23:15.684Z,62.77
2019-03-30T02:25:46.627Z,62.95
2019-03-30T02:28:18.157Z,63.22
2019-03-30T02:30:49.908Z,63.38
2019-03-30T02:33:20.960Z,63.29
2019-03-30T02:35:51.697Z,63.46
2019-03-30T02:38:23.565Z,63.82
2019-03-30T02:40:54.591Z,63.91
2019-03-30T02:43:25.123Z,64.17
2019-03-30T02:45:56.081Z,64.41
2019-03-30T02:48:28.777Z,64.23
2019-03-30T02:50:59.259Z,64.59
2019-03-30T02:53:30.059Z,64.81
2019-03-30T02:56:02.955Z,64.86
2019-03-30T02:58:35.471Z,64.96
2019-03-30T03:01:07.000Z,65.29
2019-03-30T03:03:39.202Z,65.40
2019-03-30T03:06:09.491Z,65.63
2019-03-30T03:08:40.843Z,65.52
2019-03-30T03:11:11.573Z,65.68
2019-03-30T03:13:43.018Z,65.79
2019-03-30T03:16:15.181Z,65.86
2019-03-30T03:18:46.136Z,65.83
2019-03-30T03:21:17.083Z,65.84
2019-03-30T03:23:48.306Z,65.69
2019-03-30T03:26:20.439Z,65.83
2019-03-30T03:28:52.643Z,66.11
2019-03-30T03:31:25.723Z,66.32
2019-03-30T03:33:57.901Z,66.32
2019-03-30T03:36:28.225Z,66.43
2019-03-30T03:38:58.839Z,66.30
2019-03-30T03:41:29.594Z,66.00
2019-03-30T03:44:00.410Z,66.19
2019-03-30T03:46:32.598Z,66.00
2019-03-30T03:49:03.217Z,66.04
2019-03-30T03:51:34.759Z,65.92
2019-03-30T03:54:05.702Z,65.60
2019-03-30T03:56:36.017Z,65.63
2019-03-30T03:59:06.758Z,65.85
2019-03-30T04:01:38.128Z,65.57
2019-03-30T04:04:09.142Z,65.56
2019-03-30T04:06:41.301Z,65.34
2019-03-30T04:09:13.234Z,65.58
2019-03-30T04:11:43.897Z,65.33
2019-03-30T04:14:18.015Z,65.16
2019-03-30T04:16:48.431Z,65.07
2019-03-30T04:19:20.566Z,65.09
2019-03-30T04:21:53.007Z,64.96
2019-03-30T04:24:23.396Z,64.76
2019-03-30T04:26:55.155Z,64.64
2019-03-30T04:29:25.882Z,64.63
2019-03-30T04:31:57.344Z,64.53
2019-03-30T04:34:28.379Z,64.55
2019-03-30T04:37:01.037Z,64.48
2019-03-30T04:39:31.883Z,64.08
2019-03-30T04:42:02.615Z,64.11
2019-03-30T04:44:34.784Z,63.83
2019-03-30T04:47:05.412Z,63.59
2019-03-30T04:49:36.967Z,63.55
2019-03-30T04:52:07.244Z,63.50
2019-03-30T04:54:40.166Z,63.36
2019-03-30T04:57:12.026Z,62.98
2019-03-30T04:59:43.681Z,62.97
2019-03-30T05:02:15.746Z,62.75
2019-03-30T05:04:46.168Z,62.53
2019-03-30T05:07:18.337Z,62.41
2019-03-30T05:09:49.497Z,62.28
2019-03-30T05:12:21.426Z,62.24
2019-03-30T05:14:52.069Z,61.97
2019-03-30T05:17:23.891Z,61.96
2019-03-30T05:19:54.661Z,61.88
2019-03-30T05:22:27.532Z,61.91
2019-03-30T05:24:57.837Z,62.10
2019-03-30T05:27:28.459Z,62.06
2019-03-30T05:30:00.858Z,62.04
2019-03-30T05:32:31.562Z,61.95
2019-03-30T05:35:02.435Z,62.07
2019-03-30T05:37:34.295Z,61.56
2019-03-30T05:40:07.202Z,61.63
2019-03-30T05:42:37.605Z,61.39
2019-03-30T05:45:08.845Z,61.58
2019-03-30T05:47:40.802Z,61.65
2019-03-30T05:50:11.616Z,61.69
2019-03-30T05:52:46.880Z,61.26
2019-03-30T05:55:17.803Z,60.96
2019-03-30T05:57:51.113Z,60.98
2019-03-30T06:00:23.891Z,60.63
2019-03-30T06:02:54.721Z,60.46
2019-03-30T06:05:27.412Z,60.79
2019-03-30T06:08:00.692Z,60.32
2019-03-30T06:10:31.000Z,60.40
2019-03-30T06:13:01.862Z,60.73
2019-03-30T06:15:33.616Z,60.85
2019-03-30T06:18:04.955Z,60.60
2019-03-30T06:20:36.915Z,60.26
2019-03-30T06:23:08.908Z,60.04
2019-03-30T06:25:39.921Z,59.55
2019-03-30T06:28:10.971Z,59.75
2019-03-30T06:30:44.478Z,59.14
2019-03-30T06:33:16.342Z,59.07
2019-03-30T06:35:47.452Z,59.11
2019-03-30T06:38:20.810Z,58.63
2019-03-30T06:40:51.988Z,59.02
2019-03-30T06:43:22.625Z,58.64
2019-03-30T06:45:53.353Z,58.42
2019-03-30T06:48:25.010Z,58.04
2019-03-30T06:50:56.518Z,58.58
2019-03-30T06:53:26.881Z,57.97
2019-03-30T06:55:58.125Z,57.85
2019-03-30T06:58:31.924Z,57.15
2019-03-30T07:01:02.126Z,57.75
2019-03-30T07:03:33.087Z,57.69
2019-03-30T07:06:03.622Z,56.35
2019-03-30T07:08:35.171Z,56.42
2019-03-30T07:11:20.254Z,56.66
2019-03-30T07:13:38.687Z,55.86
2019-03-30T07:16:09.417Z,55.71
2019-03-30T07:18:40.816Z,55.76
2019-03-30T07:21:11.596Z,55.04
2019-03-30T07:23:42.794Z,54.22
2019-03-30T07:26:13.475Z,54.66
2019-03-30T07:28:47.109Z,55.24
2019-03-30T07:31:17.091Z,54.83
2019-03-30T07:33:48.537Z,54.28
2019-03-30T07:36:19.198Z,54.01
2019-03-30T07:38:49.899Z,52.88
2019-03-30T07:41:20.431Z,52.95
2019-03-30T07:43:53.458Z,53.13
2019-03-30T07:46:24.247Z,52.83
2019-03-30T07:48:54.897Z,52.43
2019-03-30T07:51:25.712Z,51.72
2019-03-30T07:53:57.574Z,51.09
2019-03-30T07:56:28.307Z,50.24
2019-03-30T07:58:58.977Z,50.26
2019-03-30T08:01:31.201Z,48.91
2019-03-30T08:04:05.415Z,49.84
2019-03-30T08:06:37.321Z,50.37
2019-03-30T08:09:07.802Z,49.63
2019-03-30T08:11:39.350Z,49.48
2019-03-30T08:14:10.235Z,48.38
2019-03-30T08:16:42.253Z,47.91
2019-03-30T08:19:12.884Z,47.13
2019-03-30T08:21:44.944Z,47.03
2019-03-30T08:24:15.690Z,46.70
2019-03-30T08:26:46.411Z,46.60
2019-03-30T08:29:20.623Z,48.56
2019-03-30T08:31:51.867Z,49.68
2019-03-30T08:34:23.518Z,49.85
2019-03-30T08:36:54.665Z,49.95
2019-03-30T08:39:26.317Z,51.00
2019-03-30T08:41:57.050Z,51.64
2019-03-30T08:44:28.499Z,51.40
2019-03-30T08:47:00.972Z,52.24
2019-03-30T08:49:31.296Z,51.90
2019-03-30T08:52:02.640Z,51.54
2019-03-30T08:54:32.976Z,49.78
2019-03-30T08:57:03.812Z,49.67
2019-03-30T08:59:35.147Z,48.52
2019-03-30T09:02:06.187Z,48.60
2019-03-30T09:04:37.632Z,48.68
2019-03-30T09:07:08.981Z,47.74
2019-03-30T09:09:40.253Z,47.77
2019-03-30T09:12:12.092Z,48.30
2019-03-30T09:14:42.615Z,48.57
2019-03-30T09:17:14.883Z,48.81
2019-03-30T09:19:45.313Z,49.06
2019-03-30T09:22:16.469Z,48.61
2019-03-30T09:24:48.508Z,46.75
2019-03-30T09:27:21.291Z,46.26
2019-03-30T09:29:51.919Z,45.76
2019-03-30T09:32:24.090Z,46.25
2019-03-30T09:34:54.863Z,48.81
2019-03-30T09:37:27.237Z,49.62
2019-03-30T09:39:57.718Z,50.96
2019-03-30T09:42:28.460Z,51.37
2019-03-30T09:44:58.884Z,50.87
2019-03-30T09:47:32.166Z,50.78
2019-03-30T09:50:03.539Z,50.89
2019-03-30T09:52:34.006Z,50.44
2019-03-30T09:55:06.300Z,49.56
2019-03-30T09:57:36.536Z,48.06
2019-03-30T10:00:07.279Z,46.41
2019-03-30T10:02:38.099Z,44.99
2019-03-30T10:05:08.831Z,44.87
2019-03-30T10:07:39.462Z,46.64
2019-03-30T10:10:11.221Z,46.13
2019-03-30T10:12:41.717Z,47.47
2019-03-30T10:15:14.122Z,48.25
2019-03-30T10:17:44.539Z,49.28
2019-03-30T10:20:15.275Z,50.58
2019-03-30T10:22:46.010Z,51.60
2019-03-30T10:25:16.769Z,51.39
2019-03-30T10:27:47.372Z,51.78
2019-03-30T10:30:20.659Z,51.03
2019-03-30T10:32:51.808Z,50.74
2019-03-30T10:35:22.537Z,49.79
2019-03-30T10:37:53.270Z,48.48
2019-03-30T10:40:24.307Z,47.99
2019-03-30T10:42:55.157Z,48.16
2019-03-30T10:45:27.412Z,47.50
2019-03-30T10:47:59.376Z,46.63
2019-03-30T10:50:29.807Z,46.38
2019-03-30T10:53:00.636Z,45.15
2019-03-30T10:55:32.392Z,45.91
2019-03-30T10:58:03.129Z,46.27
2019-03-30T11:00:36.274Z,46.57
2019-03-30T11:03:08.485Z,47.24
2019-03-30T11:05:39.623Z,47.69
2019-03-30T11:08:11.280Z,48.00
2019-03-30T11:10:41.904Z,47.83
2019-03-30T11:13:15.708Z,48.50
2019-03-30T11:15:46.152Z,50.14
2019-03-30T11:18:18.695Z,50.81
2019-03-30T11:20:50.269Z,51.02
2019-03-30T11:23:20.603Z,50.67
2019-03-30T11:25:52.035Z,50.83
2019-03-30T11:28:23.666Z,50.06
2019-03-30T11:30:54.419Z,49.71
2019-03-30T11:33:24.756Z,49.12
2019-03-30T11:35:57.130Z,48.98
2019-03-30T11:38:28.256Z,48.42
2019-03-30T11:41:00.525Z,48.26
2019-03-30T11:43:31.270Z,48.38
2019-03-30T11:46:04.540Z,47.62
2019-03-30T11:48:37.649Z,47.40
2019-03-30T11:51:08.784Z,47.41
2019-03-30T11:53:39.819Z,47.77
2019-03-30T11:56:10.452Z,46.25
2019-03-30T11:58:41.692Z,45.84
2019-03-30T12:01:13.858Z,45.12
2019-03-30T12:03:44.958Z,43.87
2019-03-30T12:06:15.940Z,43.37
2019-03-30T12:08:48.299Z,43.65
2019-03-30T12:11:19.466Z,43.53
2019-03-30T12:13:50.187Z,44.40
2019-03-30T12:16:21.022Z,42.00
2019-03-30T12:18:52.468Z,32.97
2019-03-30T12:21:25.448Z,30.42
2019-03-30T12:23:57.620Z,30.84
2019-03-30T12:26:28.713Z,27.65
2019-03-30T12:29:02.136Z,28.14
2019-03-30T12:31:33.404Z,26.90
2019-03-30T12:34:04.446Z,27.07
2019-03-30T12:36:35.477Z,26.41
2019-03-30T12:39:06.521Z,26.34
2019-03-30T12:41:37.598Z,25.88
2019-03-30T12:44:08.292Z,25.83
2019-03-30T12:46:41.583Z,26.04
2019-03-30T12:49:13.783Z,26.21
2019-03-30T12:51:44.596Z,25.41
2019-03-30T12:54:15.532Z,24.99
2019-03-30T12:56:46.584Z,24.78
2019-03-30T12:59:17.416Z,26.44
2019-03-30T13:01:50.793Z,29.08
2019-03-30T13:04:23.779Z,31.17
2019-03-30T13:06:55.670Z,33.36
2019-03-30T13:09:26.272Z,32.53
2019-03-30T13:11:57.820Z,30.47
2019-03-30T13:14:28.560Z,26.20
2019-03-30T13:17:00.291Z,24.28
2019-03-30T13:19:31.853Z,24.07
2019-03-30T13:22:02.453Z,26.00
2019-03-30T13:24:35.579Z,26.00
2019-03-30T13:27:07.232Z,25.37
2019-03-30T13:29:39.193Z,25.69
2019-03-30T13:32:11.916Z,25.12
2019-03-30T13:34:43.950Z,24.28
2019-03-30T13:37:18.744Z,24.02
2019-03-30T13:39:50.739Z,23.86
2019-03-30T13:42:21.455Z,25.23
2019-03-30T13:44:52.087Z,25.58
2019-03-30T13:47:23.946Z,24.90
2019-03-30T13:49:55.502Z,24.50
2019-03-30T13:52:27.049Z,24.53
2019-03-30T13:54:57.482Z,24.05
2019-03-30T13:57:27.988Z,24.34
2019-03-30T14:00:00.389Z,27.03
2019-03-30T14:02:31.623Z,28.30
2019-03-30T14:05:03.206Z,25.76
2019-03-30T14:07:35.481Z,25.08
2019-03-30T14:10:07.184Z,24.90
2019-03-30T14:12:39.062Z,24.96
2019-03-30T14:15:11.190Z,26.46
2019-03-30T14:17:44.101Z,26.65
2019-03-30T14:20:14.834Z,29.75
2019-03-30T14:22:47.120Z,31.71
2019-03-30T14:25:18.450Z,29.98
2019-03-30T14:27:48.881Z,28.64
2019-03-30T14:30:20.639Z,28.01
2019-03-30T14:32:52.640Z,27.84
2019-03-30T14:35:24.137Z,28.26
2019-03-30T14:37:55.080Z,28.65
2019-03-30T14:40:25.510Z,29.73
2019-03-30T14:42:56.761Z,31.67
2019-03-30T14:45:27.693Z,32.51
2019-03-30T14:47:58.835Z,31.27
2019-03-30T14:50:29.258Z,30.20
2019-03-30T14:52:59.790Z,29.12
2019-03-30T14:55:30.746Z,29.81
2019-03-30T14:58:01.458Z,30.18
2019-03-30T15:00:34.243Z,30.30
2019-03-30T15:03:06.922Z,30.59
2019-03-30T15:05:38.467Z,31.01
2019-03-30T15:08:10.928Z,31.52
2019-03-30T15:10:42.744Z,32.17
2019-03-30T15:13:13.738Z,32.83
2019-03-30T15:15:45.485Z,33.04
2019-03-30T15:18:16.961Z,33.80
2019-03-30T15:20:48.065Z,34.61
2019-03-30T15:23:19.025Z,34.93
2019-03-30T15:25:51.089Z,35.60
2019-03-30T15:28:21.511Z,36.44
2019-03-30T15:30:52.244Z,36.67
2019-03-30T15:33:24.803Z,37.60
2019-03-30T15:35:58.838Z,38.30
2019-03-30T15:38:29.355Z,39.13
2019-03-30T15:41:03.055Z,39.58
2019-03-30T15:43:38.427Z,40.76
2019-03-30T15:46:06.377Z,42.29
2019-03-30T15:48:36.630Z,44.79
2019-03-30T15:51:07.946Z,45.46
2019-03-30T15:53:38.670Z,46.07
2019-03-30T15:56:09.233Z,47.53
2019-03-30T15:58:40.652Z,49.16
2019-03-30T16:01:12.284Z,49.40
2019-03-30T16:03:42.721Z,50.05
2019-03-30T16:06:13.351Z,50.62
2019-03-30T16:08:48.697Z,51.02
2019-03-30T16:11:20.042Z,51.75
2019-03-30T16:13:51.592Z,52.34
2019-03-30T16:16:22.179Z,52.59
2019-03-30T16:18:55.309Z,53.27
2019-03-30T16:21:25.736Z,53.35
2019-03-30T16:23:58.619Z,53.87
2019-03-30T16:26:41.816Z,54.09
2019-03-30T16:29:04.892Z,54.84
2019-03-30T16:31:35.322Z,55.15
2019-03-30T16:34:08.208Z,55.85
2019-03-30T16:36:39.046Z,55.89
2019-03-30T16:39:11.378Z,56.17
2019-03-30T16:41:43.578Z,56.42
2019-03-30T16:44:14.303Z,56.56
2019-03-30T16:46:45.669Z,56.66
2019-03-30T16:49:16.905Z,57.10
2019-03-30T16:51:47.219Z,57.49
2019-03-30T16:54:17.777Z,57.81
2019-03-30T16:56:51.874Z,58.12
2019-03-30T16:59:22.193Z,58.24
2019-03-30T17:01:55.164Z,58.39
2019-03-30T17:04:29.405Z,58.90
2019-03-30T17:06:59.502Z,58.67
2019-03-30T17:09:30.096Z,58.93
2019-03-30T17:12:01.989Z,59.15
2019-03-30T17:14:32.313Z,59.76
2019-03-30T17:17:03.455Z,60.28
2019-03-30T17:19:35.474Z,59.94
2019-03-30T17:22:06.693Z,60.51
2019-03-30T17:24:38.418Z,61.00
2019-03-30T17:27:08.739Z,60.86
2019-03-30T17:29:40.125Z,60.73
2019-03-30T17:32:11.632Z,60.95
2019-03-30T17:34:42.372Z,61.05
2019-03-30T17:37:14.644Z,61.35
2019-03-30T17:39:45.171Z,61.28
2019-03-30T17:42:15.998Z,61.18
2019-03-30T17:44:46.635Z,61.73
2019-03-30T17:47:19.925Z,61.51
2019-03-30T17:49:51.126Z,62.05
2019-03-30T17:52:23.442Z,61.99
2019-03-30T17:54:54.171Z,62.41
2019-03-30T17:57:25.725Z,62.54
2019-03-30T17:59:57.379Z,63.12
2019-03-30T18:02:29.532Z,63.45
2019-03-30T18:05:00.581Z,63.55
2019-03-30T18:07:33.348Z,63.58
2019-03-30T18:10:05.021Z,63.81
2019-03-30T18:12:35.343Z,64.23
2019-03-30T18:15:06.377Z,64.28
2019-03-30T18:17:36.691Z,64.40
2019-03-30T18:20:09.378Z,64.28
2019-03-30T18:22:40.728Z,64.54
2019-03-30T18:25:11.048Z,64.69
2019-03-30T18:27:42.602Z,64.94
2019-03-30T18:30:12.929Z,65.39
2019-03-30T18:32:43.861Z,65.69
2019-03-30T18:35:15.255Z,65.41
2019-03-30T18:37:46.847Z,65.40
2019-03-30T18:40:29.165Z,65.60
2019-03-30T18:43:00.088Z,65.91
2019-03-30T18:45:31.850Z,65.69
2019-03-30T18:48:11.193Z,66.17
2019-03-30T18:50:42.129Z,65.93
2019-03-30T18:53:12.653Z,66.13
2019-03-30T18:55:44.034Z,66.39
2019-03-30T18:58:14.741Z,66.41
2019-03-30T19:00:45.979Z,66.86
2019-03-30T19:03:20.063Z,66.81
2019-03-30T19:05:49.697Z,67.14
2019-03-30T19:08:20.427Z,67.23
2019-03-30T19:10:51.574Z,67.21
2019-03-30T19:13:22.615Z,67.19
2019-03-30T19:15:55.505Z,67.70
2019-03-30T19:18:26.228Z,67.81
2019-03-30T19:20:56.455Z,67.63
2019-03-30T19:23:28.920Z,67.88
2019-03-30T19:26:03.547Z,68.04
2019-03-30T19:28:34.992Z,68.21
2019-03-30T19:31:05.731Z,68.53
2019-03-30T19:33:37.181Z,68.42
2019-03-30T19:36:10.060Z,68.04
2019-03-30T19:38:39.564Z,68.43
2019-03-30T19:41:10.292Z,68.10
2019-03-30T19:43:40.924Z,68.49
2019-03-30T19:46:13.115Z,68.51
2019-03-30T19:48:45.565Z,68.56
2019-03-30T19:51:16.502Z,69.01
2019-03-30T19:53:48.461Z,68.50
2019-03-30T19:56:19.095Z,68.46
2019-03-30T19:58:49.722Z,68.80
2019-03-30T20:01:21.181Z,68.55
2019-03-30T20:03:52.072Z,68.38
2019-03-30T20:06:23.972Z,68.60
2019-03-30T20:08:54.805Z,68.76
2019-03-30T20:11:26.357Z,68.96
2019-03-30T20:13:57.017Z,69.08
2019-03-30T20:16:30.565Z,69.37
2019-03-30T20:19:12.039Z,69.71
2019-03-30T20:21:35.158Z,69.58
2019-03-30T20:24:08.062Z,69.87
2019-03-30T20:26:38.885Z,69.85
2019-03-30T20:29:24.399Z,69.98
2019-03-30T20:31:46.482Z,69.90
2019-03-30T20:34:17.028Z,69.93
2019-03-30T20:36:47.605Z,70.07
2019-03-30T20:39:18.911Z,70.01
2019-03-30T20:41:51.429Z,70.04
2019-03-30T20:44:22.981Z,69.91
2019-03-30T20:46:54.632Z,69.85
2019-03-30T20:49:26.390Z,70.35
2019-03-30T20:51:57.032Z,70.67
2019-03-30T20:54:28.548Z,71.09
2019-03-30T20:56:59.735Z,71.11
2019-03-30T20:59:39.952Z,71.45
2019-03-30T21:02:05.075Z,71.96
2019-03-30T21:04:35.555Z,72.05
2019-03-30T21:07:06.095Z,72.16
2019-03-30T21:09:36.958Z,72.11
2019-03-30T21:12:09.224Z,72.31
2019-03-30T21:14:39.963Z,72.56
2019-03-30T21:17:11.200Z,72.85
2019-03-30T21:19:41.938Z,72.87
2019-03-30T21:22:13.489Z,72.77
2019-03-30T21:24:44.889Z,72.73
2019-03-30T21:27:15.771Z,72.81
2019-03-30T21:29:54.586Z,72.74
2019-03-30T21:32:22.257Z,73.18
2019-03-30T21:34:53.100Z,73.07
2019-03-30T21:37:25.242Z,73.12
2019-03-30T21:39:58.009Z,73.27
2019-03-30T21:42:29.878Z,73.06
2019-03-30T21:45:02.368Z,73.00
2019-03-30T21:47:32.741Z,72.89
2019-03-30T21:50:04.699Z,73.10
2019-03-30T21:52:35.054Z,73.28
2019-03-30T21:55:06.733Z,73.41
2019-03-30T21:57:40.645Z,73.51
2019-03-30T22:00:11.824Z,73.70
2019-03-30T22:02:43.840Z,73.68
2019-03-30T22:05:17.276Z,73.56
2019-03-30T22:07:48.789Z,73.60
2019-03-30T22:10:22.084Z,73.79
2019-03-30T22:12:54.957Z,73.88
2019-03-30T22:15:29.193Z,74.04
2019-03-30T22:18:00.011Z,74.10
2019-03-30T22:20:31.974Z,74.30
2019-03-30T22:23:03.767Z,74.45
2019-03-30T22:25:35.281Z,74.45
2019-03-30T22:28:08.664Z,74.59
2019-03-30T22:30:39.311Z,74.75
2019-03-30T22:33:09.899Z,74.83
2019-03-30T22:35:40.572Z,74.96
2019-03-30T22:38:11.304Z,75.12
2019-03-30T22:40:45.515Z,75.17
2019-03-30T22:43:16.421Z,75.39
2019-03-30T22:45:47.185Z,75.62
2019-03-30T22:48:18.635Z,75.57
2019-03-30T22:50:49.447Z,75.66
2019-03-30T22:53:20.515Z,75.77
2019-03-30T22:55:52.111Z,75.70
2019-03-30T22:58:23.721Z,76.01
2019-03-30T23:00:56.293Z,76.05
2019-03-30T23:03:26.926Z,76.40
2019-03-30T23:05:57.650Z,76.44
2019-03-30T23:08:28.971Z,76.71
2019-03-30T23:11:01.575Z,77.15
2019-03-30T23:13:32.718Z,77.55
2019-03-30T23:16:06.929Z,77.75
2019-03-30T23:18:39.335Z,78.14
2019-03-30T23:21:09.831Z,78.47
2019-03-30T23:23:40.460Z,78.72
2019-03-30T23:26:11.090Z,78.75
2019-03-30T23:28:42.025Z,78.85
2019-03-30T23:31:13.576Z,78.32
2019-03-30T23:33:44.210Z,78.00
2019-03-30T23:36:14.845Z,77.96
2019-03-30T23:38:45.674Z,77.86
2019-03-30T23:41:16.504Z,77.76
2019-03-30T23:43:48.150Z,77.88
2019-03-30T23:46:18.898Z,77.92
2019-03-30T23:48:50.099Z,78.00
2019-03-30T23:51:21.594Z,78.03
2019-03-30T23:53:57.032Z,77.94
2019-03-30T23:56:29.176Z,78.24
2019-03-30T23:59:03.000Z,78.30
